Time;durP1;ratioP1;P1;durP2;ratioP2;P2;SDS_P1;SDS_P2;PMS_P1;PMS_P2;Temp;Humidity;BMP_temperature;BMP_pressure;BME280_temperature;BME280_humidity;BME280_pressure;Samples;Min_cycle;Max_cycle;Signal;HPM_P1;HPM_P2
2021/05/12 00:01:59;;;;;;;5.28;3.28;;;;;;;10.84;62.50;100370.53;5088887;28;20117;-76
2021/05/12 00:04:25;;;;;;;5.38;2.90;;;;;;;10.84;62.34;100374.81;5073455;28;20554;-77
2021/05/12 00:06:51;;;;;;;7.35;3.00;;;;;;;10.49;62.48;100335.72;5073534;28;20043;-76
2021/05/12 00:09:16;;;;;;;8.43;3.60;;;;;;;10.67;62.31;100369.94;5073913;28;20059;-76
2021/05/12 00:11:42;;;;;;;5.57;2.97;;;;;;;10.81;62.14;100373.00;5073077;28;20028;-75
2021/05/12 00:14:08;;;;;;;9.23;2.90;;;;;;;10.72;62.27;100359.78;5070454;28;20479;-75
2021/05/12 00:16:33;;;;;;;6.93;3.22;;;;;;;10.62;62.25;100347.38;5072528;28;20455;-73
2021/05/12 00:18:59;;;;;;;6.78;3.08;;;;;;;10.04;63.47;100324.69;5073512;28;20081;-74
2021/05/12 00:21:36;;;;;;;4.93;3.22;;;;;;;9.85;65.17;100363.50;5073228;28;20107;-75
2021/05/12 00:24:02;;;;;;;6.25;2.83;;;;;;;10.16;64.17;100359.50;5073252;28;20021;-75
2021/05/12 00:26:38;;;;;;;4.65;3.08;;;;;;;9.90;63.90;100306.94;5073200;28;20033;-76
2021/05/12 00:29:17;;;;;;;6.55;3.00;;;;;;;9.96;64.42;100353.59;5073325;28;20021;-75
2021/05/12 00:31:44;;;;;;;5.07;3.00;;;;;;;9.96;63.80;100327.81;5073222;28;20017;-75
2021/05/12 00:34:10;;;;;;;5.57;3.50;;;;;;;10.38;63.25;100349.97;5072146;28;20731;-76
2021/05/12 00:36:35;;;;;;;5.55;3.38;;;;;;;10.38;62.99;100340.53;5072072;28;20041;-76
2021/05/12 00:39:06;;;;;;;4.32;3.05;;;;;;;10.44;63.04;100350.19;5068104;28;20031;-74
2021/05/12 00:41:36;;;;;;;5.30;3.35;;;;;;;10.36;63.27;100337.00;5070173;28;20078;-76
2021/05/12 00:44:03;;;;;;;;;;;;;;;10.25;63.89;100338.31;5072937;28;20021;-76
2021/05/12 00:46:28;;;;;;;6.90;3.60;;;;;;;10.25;64.40;100328.84;5072239;28;19912;-77
2021/05/12 00:48:54;;;;;;;6.68;3.72;;;;;;;10.29;65.12;100314.34;5071428;28;20031;-76
2021/05/12 00:51:19;;;;;;;7.63;3.50;;;;;;;10.36;64.62;100318.94;5072646;28;20024;-73
2021/05/12 00:53:45;;;;;;;6.45;4.10;;;;;;;10.30;65.22;100322.16;5072975;28;20024;-75
2021/05/12 00:56:12;;;;;;;7.45;3.83;;;;;;;10.28;65.24;100312.59;5071968;28;20024;-76
2021/05/12 00:58:38;;;;;;;6.85;3.88;;;;;;;10.42;65.23;100321.75;5071834;28;20032;-77
2021/05/12 01:01:03;;;;;;;10.07;4.15;;;;;;;10.51;64.87;100322.06;5072072;28;20028;-73
2021/05/12 01:03:29;;;;;;;8.73;3.72;;;;;;;10.48;64.85;100321.97;5068968;28;20044;-73
2021/05/12 01:05:54;;;;;;;7.90;4.45;;;;;;;10.54;64.72;100313.53;5071772;28;20032;-72
2021/05/12 01:08:20;;;;;;;6.72;3.78;;;;;;;10.59;64.37;100303.38;5071602;28;20030;-73
2021/05/12 01:10:46;;;;;;;8.40;4.25;;;;;;;10.19;64.37;100261.56;5071952;28;20035;-74
2021/05/12 01:13:13;;;;;;;9.95;4.53;;;;;;;10.11;64.53;100252.69;5070724;28;20466;-75
2021/05/12 01:15:43;;;;;;;5.65;3.88;;;;;;;10.26;64.75;100304.81;5071837;28;20025;-76
2021/05/12 01:18:15;;;;;;;7.07;3.65;;;;;;;10.30;64.62;100308.38;5071571;28;20482;-74
2021/05/12 01:20:52;;;;;;;5.78;3.97;;;;;;;9.91;64.56;100260.56;5071513;28;20111;-74
2021/05/12 01:23:19;;;;;;;5.63;4.18;;;;;;;10.03;64.59;100301.38;5070337;28;20024;-76
2021/05/12 01:25:46;;;;;;;6.18;3.40;;;;;;;10.12;64.29;100303.44;5069499;28;20033;-76
2021/05/12 01:28:12;;;;;;;8.60;3.75;;;;;;;9.46;65.25;100264.09;5071392;28;20033;-76
2021/05/12 01:30:38;;;;;;;7.82;3.60;;;;;;;9.62;65.54;100313.63;5071420;28;20031;-77
2021/05/12 01:33:05;;;;;;;5.43;3.78;;;;;;;9.64;65.15;100304.25;5072034;28;20509;-77
2021/05/12 01:35:30;;;;;;;4.72;3.30;;;;;;;9.66;64.73;100293.19;5070367;28;20124;-75
2021/05/12 01:37:56;;;;;;;5.13;3.63;;;;;;;9.93;63.93;100309.63;5071876;28;20032;-74
2021/05/12 01:40:21;;;;;;;5.47;4.00;;;;;;;9.29;63.50;100178.41;5071717;28;20039;-75
2021/05/12 01:42:47;;;;;;;5.53;3.42;;;;;;;10.12;62.66;100299.16;5071792;28;20024;-77
2021/05/12 01:45:13;;;;;;;5.90;4.00;;;;;;;9.88;63.25;100297.44;5070577;28;20036;-78
2021/05/12 01:47:39;;;;;;;6.05;3.72;;;;;;;9.64;64.20;100301.69;5071601;28;20032;-76
2021/05/12 01:50:08;;;;;;;6.78;3.78;;;;;;;9.51;64.63;100296.06;5070818;28;20097;-74
2021/05/12 01:52:39;;;;;;;5.00;3.55;;;;;;;9.03;65.67;100259.84;5071616;28;20403;-77
2021/05/12 01:55:07;;;;;;;7.82;3.80;;;;;;;8.90;65.94;100241.31;5070364;28;20032;-77
2021/05/12 01:57:32;;;;;;;6.43;4.38;;;;;;;9.26;65.97;100278.78;5071509;28;20505;-75
2021/05/12 01:59:58;;;;;;;5.05;4.30;;;;;;;9.27;66.36;100272.81;5071348;28;20025;-77
2021/05/12 02:02:23;;;;;;;5.50;4.18;;;;;;;9.39;66.47;100259.50;5070984;28;20051;-74
2021/05/12 02:04:49;;;;;;;7.85;4.18;;;;;;;9.09;68.56;100272.09;5070185;28;20043;-75
2021/05/12 02:07:14;;;;;;;5.85;4.40;;;;;;;9.18;69.18;100269.84;5071678;28;20107;-74
2021/05/12 02:09:43;;;;;;;7.28;4.32;;;;;;;9.07;69.03;100257.44;5071700;28;20029;-75
2021/05/12 02:12:09;;;;;;;5.78;4.57;;;;;;;8.84;69.42;100211.88;5071498;28;20021;-77
2021/05/12 02:14:34;;;;;;;6.55;4.47;;;;;;;8.94;69.78;100246.59;5071369;28;20025;-74
2021/05/12 02:17:00;;;;;;;7.65;4.47;;;;;;;8.82;69.87;100224.72;5071279;28;20082;-78
2021/05/12 02:19:26;;;;;;;8.23;4.40;;;;;;;9.18;69.46;100251.84;5071472;28;20115;-78
2021/05/12 02:21:51;;;;;;;9.95;4.75;;;;;;;9.00;69.83;100234.84;5071353;28;20021;-76
2021/05/12 02:24:17;;;;;;;9.10;4.90;;;;;;;9.21;69.61;100254.53;5071403;28;20086;-77
2021/05/12 02:26:43;;;;;;;10.43;5.05;;;;;;;9.32;68.60;100244.63;5071533;28;20036;-77
2021/05/12 02:29:08;;;;;;;7.80;4.57;;;;;;;9.16;68.07;100251.78;5071685;28;20025;-75
2021/05/12 02:31:34;;;;;;;9.88;4.20;;;;;;;8.87;68.92;100254.09;5071063;28;20074;-76
2021/05/12 02:34:00;;;;;;;6.03;4.72;;;;;;;8.81;68.82;100250.38;5069902;28;20052;-77
2021/05/12 02:36:25;;;;;;;6.63;4.20;;;;;;;8.83;67.78;100236.72;5071378;28;20402;-74
2021/05/12 02:38:51;;;;;;;7.53;4.20;;;;;;;8.54;67.79;100202.13;5073658;28;20116;-76
2021/05/12 02:41:16;;;;;;;8.30;4.75;;;;;;;8.79;68.04;100240.00;5072524;28;20033;-74
2021/05/12 02:43:43;;;;;;;10.57;4.57;;;;;;;8.73;67.47;100245.81;5072632;28;20047;-74
2021/05/12 02:46:08;;;;;;;8.25;4.85;;;;;;;8.56;67.38;100228.78;5073022;28;20508;-75
2021/05/12 02:48:34;;;;;;;6.18;4.03;;;;;;;8.23;67.46;100195.66;5072838;28;20028;-74
2021/05/12 02:50:59;;;;;;;6.00;4.18;;;;;;;8.40;68.06;100240.13;5072668;28;20033;-74
2021/05/12 02:53:25;;;;;;;10.35;4.68;;;;;;;8.38;68.77;100250.31;5072877;28;20029;-77
2021/05/12 02:55:50;;;;;;;6.25;4.40;;;;;;;8.42;68.66;100238.47;5072725;28;20512;-73
2021/05/12 02:58:16;;;;;;;7.72;5.00;;;;;;;8.29;68.99;100251.63;5072595;28;20119;-74
2021/05/12 03:00:42;;;;;;;8.50;4.07;;;;;;;8.41;68.42;100252.13;5069854;28;20040;-77
2021/05/12 03:03:09;;;;;;;8.43;5.18;;;;;;;8.49;67.64;100243.09;5072298;28;20131;-74
2021/05/12 03:05:36;;;;;;;6.90;4.47;;;;;;;8.22;68.24;100235.94;5072412;28;20537;-74
2021/05/12 03:08:02;;;;;;;8.30;5.15;;;;;;;8.34;67.87;100245.00;5055811;28;20461;-74
2021/05/12 03:10:31;;;;;;;7.35;4.25;;;;;;;8.45;67.46;100246.31;5072570;28;20506;-74
2021/05/12 03:12:57;;;;;;;7.00;4.53;;;;;;;8.57;67.27;100243.41;5068672;28;20086;-75
2021/05/12 03:15:24;;;;;;;6.18;4.65;;;;;;;8.56;67.97;100241.63;5074367;28;20028;-73
2021/05/12 03:17:51;;;;;;;8.07;5.05;;;;;;;8.54;68.52;100251.88;5074209;28;20474;-78
2021/05/12 03:20:18;;;;;;;7.45;4.47;;;;;;;8.60;68.22;100229.78;5074379;28;20478;-74
2021/05/12 03:22:44;;;;;;;7.35;4.95;;;;;;;8.70;68.57;100244.81;5073345;28;20471;-76
2021/05/12 03:25:10;;;;;;;8.98;4.93;;;;;;;8.86;68.27;100236.88;5074279;28;20025;-76
2021/05/12 03:27:35;;;;;;;7.25;5.03;;;;;;;8.95;68.36;100233.78;5074434;28;20502;-74
2021/05/12 03:30:01;;;;;;;8.30;5.10;;;;;;;9.00;67.82;100245.13;5074173;28;20032;-75
2021/05/12 03:32:27;;;;;;;11.20;5.10;;;;;;;8.96;68.05;100240.69;5055700;28;20036;-78
2021/05/12 03:34:52;;;;;;;7.85;4.43;;;;;;;8.79;67.79;100211.69;5074272;28;20035;-74
2021/05/12 03:37:18;;;;;;;6.60;4.97;;;;;;;8.77;68.07;100236.47;5074246;28;20032;-78
2021/05/12 03:39:43;;;;;;;10.60;4.95;;;;;;;8.73;68.36;100235.50;5074113;28;20032;-76
2021/05/12 03:42:09;;;;;;;7.18;5.22;;;;;;;8.61;68.45;100235.00;5074282;28;20402;-73
2021/05/12 03:44:35;;;;;;;6.55;5.03;;;;;;;8.78;67.99;100242.53;5072512;28;20402;-74
2021/05/12 03:47:00;;;;;;;11.60;5.43;;;;;;;8.89;67.63;100241.25;5071570;28;20414;-76
2021/05/12 03:49:26;;;;;;;8.57;5.25;;;;;;;8.85;67.53;100247.13;5071144;28;20036;-76
2021/05/12 03:51:52;;;;;;;7.20;5.63;;;;;;;8.67;67.37;100232.69;5071659;28;20044;-73
2021/05/12 03:54:17;;;;;;;7.22;4.90;;;;;;;8.61;67.62;100232.44;5071479;28;20056;-74
2021/05/12 03:56:42;;;;;;;8.57;4.63;;;;;;;8.41;68.75;100241.84;5071223;28;20056;-77
2021/05/12 03:59:08;;;;;;;9.68;5.28;;;;;;;8.31;69.11;100242.28;5070283;28;20043;-76
2021/05/12 04:01:33;;;;;;;6.78;4.78;;;;;;;8.13;69.39;100237.25;5070989;28;20044;-74
2021/05/12 04:04:04;;;;;;;7.93;5.30;;;;;;;8.26;69.18;100240.41;5054241;28;20084;-74
2021/05/12 04:06:30;;;;;;;9.30;4.63;;;;;;;8.49;68.66;100235.38;5071213;28;20036;-73
2021/05/12 04:08:55;;;;;;;7.75;5.85;;;;;;;8.53;68.39;100215.78;5054335;28;20505;-73
2021/05/12 04:11:21;;;;;;;9.13;4.88;;;;;;;8.55;68.72;100232.19;5070917;28;20063;-78
2021/05/12 04:13:46;;;;;;;9.57;5.05;;;;;;;8.70;68.40;100224.22;5070835;28;20099;-73
2021/05/12 04:16:12;;;;;;;11.57;5.55;;;;;;;8.98;67.46;100225.31;5071195;28;20442;-79
2021/05/12 04:18:37;;;;;;;9.25;4.90;;;;;;;9.03;66.81;100209.22;5071788;28;20491;-77
2021/05/12 04:21:03;;;;;;;8.95;5.47;;;;;;;9.19;66.72;100220.09;5072179;28;20410;-73
2021/05/12 04:23:28;;;;;;;8.57;5.03;;;;;;;9.36;66.49;100218.19;5071689;28;20074;-74
2021/05/12 04:25:53;;;;;;;9.40;5.10;;;;;;;9.49;66.11;100222.97;5072218;28;20086;-73
2021/05/12 04:28:19;;;;;;;10.63;5.10;;;;;;;9.50;65.89;100214.41;5072965;28;20020;-73
2021/05/12 04:30:44;;;;;;;11.75;5.13;;;;;;;9.66;65.66;100217.56;5072404;28;20040;-73
2021/05/12 04:33:10;;;;;;;18.80;5.93;;;;;;;9.53;66.33;100209.38;5073134;28;20060;-79
2021/05/12 04:35:35;;;;;;;12.95;5.78;;;;;;;9.76;66.06;100209.34;5072453;28;20555;-74
2021/05/12 04:38:01;;;;;;;17.27;5.68;;;;;;;9.85;66.32;100204.50;5073003;28;20028;-74
2021/05/12 04:40:27;;;;;;;10.40;5.82;;;;;;;9.80;66.86;100203.47;5071402;28;20028;-76
2021/05/12 04:42:53;;;;;;;9.48;5.65;;;;;;;9.80;67.06;100193.16;5072828;28;20036;-77
2021/05/12 04:45:19;;;;;;;18.15;5.78;;;;;;;9.89;66.88;100195.16;5072842;28;20028;-77
2021/05/12 04:47:55;;;;;;;12.73;6.38;;;;;;;9.98;67.16;100197.19;5071641;28;20071;-79
2021/05/12 04:50:24;;;;;;;12.23;5.55;;;;;;;9.78;66.82;100199.06;5072535;28;20082;-75
2021/05/12 04:52:50;;;;;;;13.35;5.65;;;;;;;9.96;66.50;100201.44;5070936;28;20098;-79
2021/05/12 04:55:15;;;;;;;17.63;5.80;;;;;;;9.64;66.23;100129.00;5072544;28;20032;-78
2021/05/12 04:57:41;;;;;;;18.33;6.10;;;;;;;10.15;66.77;100192.63;5072483;28;20029;-78
2021/05/12 05:00:07;;;;;;;13.52;6.55;;;;;;;10.25;67.60;100199.84;5071953;28;20036;-80
2021/05/12 05:02:33;;;;;;;15.55;5.70;;;;;;;9.92;67.55;100138.56;5069584;28;20084;-73
2021/05/12 05:04:58;;;;;;;12.60;6.05;;;;;;;10.30;67.00;100187.09;5053622;28;20489;-74
2021/05/12 05:07:24;;;;;;;16.20;5.90;;;;;;;10.46;65.92;100186.81;5072436;28;20395;-72
2021/05/12 05:09:49;;;;;;;10.88;5.55;;;;;;;10.47;66.54;100196.31;5071346;28;20037;-71
2021/05/12 05:12:15;;;;;;;23.33;6.18;;;;;;;10.37;65.71;100191.69;5072041;28;20028;-72
2021/05/12 05:14:40;;;;;;;13.63;6.30;;;;;;;10.05;67.43;100157.91;5071810;28;20037;-74
2021/05/12 05:17:06;;;;;;;21.90;6.22;;;;;;;10.03;67.13;100200.81;5071756;28;20544;-73
2021/05/12 05:19:31;;;;;;;15.98;6.68;;;;;;;9.87;67.82;100200.28;5072089;28;20498;-74
2021/05/12 05:22:00;;;;;;;17.88;6.30;;;;;;;10.00;67.75;100196.41;5068858;28;20049;-73
2021/05/12 05:24:25;;;;;;;18.45;6.57;;;;;;;9.96;66.80;100157.59;5071208;28;20021;-78
2021/05/12 05:26:51;;;;;;;24.35;7.15;;;;;;;10.17;67.13;100196.16;5071846;28;20035;-73
2021/05/12 05:29:16;;;;;;;23.55;6.90;;;;;;;10.38;66.73;100198.59;5071675;28;20033;-72
2021/05/12 05:31:42;;;;;;;21.70;8.02;;;;;;;10.45;68.27;100197.97;5068826;28;20075;-75
2021/05/12 05:34:07;;;;;;;27.10;8.02;;;;;;;10.28;67.33;100184.50;5071487;28;20024;-72
2021/05/12 05:36:32;;;;;;;26.67;7.97;;;;;;;10.01;67.93;100148.31;5071200;28;20020;-72
2021/05/12 05:38:58;;;;;;;30.35;8.93;;;;;;;10.29;67.52;100190.50;5055918;28;20025;-75
2021/05/12 05:41:24;;;;;;;34.35;8.73;;;;;;;10.67;68.24;100186.63;5072186;28;20032;-76
2021/05/12 05:43:49;;;;;;;44.28;9.32;;;;;;;11.00;67.48;100187.63;5070901;28;20032;-75
2021/05/12 05:46:15;;;;;;;27.52;8.38;;;;;;;11.33;66.23;100189.50;5069504;28;20020;-76
2021/05/12 05:48:40;;;;;;;37.67;8.70;;;;;;;11.24;66.30;100150.44;5070989;28;20643;-75
2021/05/12 05:51:06;;;;;;;31.40;8.98;;;;;;;11.45;65.95;100187.25;5070970;28;20064;-75
2021/05/12 05:53:31;;;;;;;24.95;8.75;;;;;;;11.50;65.00;100202.88;5071188;28;20508;-75
2021/05/12 05:55:57;;;;;;;35.80;8.02;;;;;;;11.82;64.04;100185.72;5071497;28;20173;-76
2021/05/12 05:58:22;;;;;;;30.13;7.43;;;;;;;11.82;62.90;100141.75;5071884;28;20086;-74
2021/05/12 06:00:48;;;;;;;28.23;7.38;;;;;;;12.41;61.68;100181.19;5071481;28;20055;-76
2021/05/12 06:03:13;;;;;;;37.50;7.40;;;;;;;12.63;60.63;100174.81;5071408;28;20044;-73
2021/05/12 06:05:45;;;;;;;28.20;6.78;;;;;;;12.81;59.14;100170.91;5071714;28;20087;-73
2021/05/12 06:08:11;;;;;;;21.92;6.60;;;;;;;12.85;61.00;100160.66;5071517;28;20020;-72
2021/05/12 06:10:36;;;;;;;19.17;6.45;;;;;;;13.01;61.41;100167.06;5071235;28;20035;-72
2021/05/12 06:13:02;;;;;;;17.38;4.90;;;;;;;13.08;62.44;100158.59;5071645;28;20029;-75
2021/05/12 06:15:27;;;;;;;14.55;4.65;;;;;;;12.72;61.60;100094.75;5071311;28;20027;-73
2021/05/12 06:17:53;;;;;;;17.38;3.97;;;;;;;13.22;59.70;100143.31;5071299;28;20031;-74
2021/05/12 06:20:19;;;;;;;7.55;3.30;;;;;;;13.32;58.89;100134.03;5071466;28;20032;-72
2021/05/12 06:22:44;;;;;;;10.15;3.40;;;;;;;13.47;58.09;100135.19;5071097;28;20680;-76
2021/05/12 06:25:10;;;;;;;14.00;3.97;;;;;;;13.67;59.04;100140.75;5071169;28;20036;-73
2021/05/12 06:27:40;;;;;;;10.50;3.47;;;;;;;13.58;58.70;100146.66;5070089;28;20046;-75
2021/05/12 06:30:06;;;;;;;9.32;2.95;;;;;;;13.38;58.19;100146.25;5071264;28;20033;-72
2021/05/12 06:32:32;;;;;;;18.40;4.07;;;;;;;13.58;54.46;100152.72;5071167;28;20537;-73
2021/05/12 06:34:58;;;;;;;19.58;3.97;;;;;;;13.56;54.31;100149.22;5071317;28;20036;-77
2021/05/12 06:37:23;;;;;;;11.80;3.08;;;;;;;13.50;54.91;100145.63;5070002;28;20033;-73
2021/05/12 06:39:51;;;;;;;13.85;3.05;;;;;;;13.46;55.57;100147.28;5071265;28;20028;-73
2021/05/12 06:42:17;;;;;;;7.57;2.40;;;;;;;13.49;55.03;100141.28;5064085;28;20107;-73
2021/05/12 06:44:43;;;;;;;10.95;2.47;;;;;;;13.70;52.66;100152.06;5051373;28;20033;-76
2021/05/12 06:47:08;;;;;;;27.17;2.83;;;;;;;13.96;50.05;100141.31;5050898;28;20489;-75
2021/05/12 06:49:34;;;;;;;11.95;2.72;;;;;;;14.02;49.20;100114.59;5051029;28;20487;-73
2021/05/12 06:51:59;;;;;;;8.10;2.05;;;;;;;14.08;50.24;100123.34;5050966;28;20025;-73
2021/05/12 06:54:25;;;;;;;12.77;2.50;;;;;;;14.15;49.65;100118.25;5068559;28;20028;-73
2021/05/12 06:56:50;;;;;;;9.00;2.88;;;;;;;14.33;48.65;100117.69;5069234;28;20035;-73
2021/05/12 06:59:16;;;;;;;12.30;3.33;;;;;;;14.41;48.53;100116.09;5070867;28;20028;-73
2021/05/12 07:01:41;;;;;;;11.13;2.80;;;;;;;14.70;48.21;100118.28;5070821;28;20037;-73
2021/05/12 07:04:07;;;;;;;32.65;3.72;;;;;;;14.86;47.23;100108.97;5070863;28;20056;-77
2021/05/12 07:06:33;;;;;;;9.52;2.60;;;;;;;15.07;50.49;100113.59;5070707;28;20025;-74
2021/05/12 07:08:59;;;;;;;6.35;2.10;;;;;;;15.00;49.40;100110.03;5071157;28;20479;-76
2021/05/12 07:11:24;;;;;;;7.57;2.30;;;;;;;15.12;47.54;100092.84;5070993;28;20068;-73
2021/05/12 07:13:53;;;;;;;8.57;2.15;;;;;;;15.44;46.65;100097.53;5069063;28;20487;-74
2021/05/12 07:16:19;;;;;;;11.07;2.30;;;;;;;15.52;45.83;100109.75;5069430;28;20043;-74
2021/05/12 07:18:44;;;;;;;8.18;2.22;;;;;;;15.41;44.90;100063.69;5070607;28;20029;-73
2021/05/12 07:21:10;;;;;;;12.02;2.35;;;;;;;15.42;46.68;100100.13;5070415;28;20032;-73
2021/05/12 07:23:38;;;;;;;5.78;2.42;;;;;;;15.60;45.70;100090.75;5069644;28;20436;-74
2021/05/12 07:26:04;;;;;;;8.30;2.17;;;;;;;15.94;44.85;100093.75;5073142;28;20033;-75
2021/05/12 07:28:31;;;;;;;12.85;2.40;;;;;;;15.92;44.60;100062.47;5074406;28;20186;-74
2021/05/12 07:30:56;;;;;;;12.77;3.80;;;;;;;16.04;44.92;100076.44;5074175;28;20088;-73
2021/05/12 07:33:22;;;;;;;10.13;2.67;;;;;;;15.90;44.30;100029.47;5074121;28;20029;-74
2021/05/12 07:35:47;;;;;;;4.45;1.85;;;;;;;16.29;44.13;100054.94;5073245;28;20384;-74
2021/05/12 07:38:13;;;;;;;8.75;2.53;;;;;;;16.42;44.47;100057.63;5074208;28;20025;-77
2021/05/12 07:40:39;;;;;;;6.95;2.20;;;;;;;16.46;45.65;100033.31;5074422;28;20036;-74
2021/05/12 07:43:09;;;;;;;11.18;2.20;;;;;;;16.76;44.50;100047.38;5071176;28;20021;-78
2021/05/12 07:45:37;;;;;;;7.03;2.08;;;;;;;16.79;46.31;100042.19;5060670;28;20487;-74
2021/05/12 07:48:11;;;;;;;8.20;2.45;;;;;;;16.83;47.33;100043.94;5073703;28;20036;-74
2021/05/12 07:50:38;;;;;;;7.05;2.10;;;;;;;16.62;45.57;100018.66;5061351;28;20038;-76
2021/05/12 07:53:06;;;;;;;9.88;2.38;;;;;;;16.80;45.22;100049.16;5071957;28;20028;-77
2021/05/12 07:55:32;;;;;;;9.32;1.98;;;;;;;16.90;43.62;100047.47;5073342;28;20044;-74
2021/05/12 07:57:57;;;;;;;13.13;2.28;;;;;;;16.48;45.25;100049.84;5074082;28;20029;-76
2021/05/12 08:00:23;;;;;;;5.90;2.25;;;;;;;16.48;42.81;100021.19;5073620;28;20604;-76
2021/05/12 08:02:49;;;;;;;8.10;2.33;;;;;;;16.56;43.35;100049.91;5073268;28;20055;-76
2021/05/12 08:05:15;;;;;;;7.60;2.10;;;;;;;16.46;43.18;100051.56;5051041;28;20056;-77
2021/05/12 08:07:41;;;;;;;10.10;2.05;;;;;;;16.45;43.25;100047.25;5051277;28;20084;-74
2021/05/12 08:10:07;;;;;;;4.90;1.80;;;;;;;16.32;43.38;100046.28;5051313;28;20048;-76
2021/05/12 08:12:34;;;;;;;11.75;2.75;;;;;;;16.47;43.93;100041.19;5051178;28;20037;-77
2021/05/12 08:14:59;;;;;;;12.90;2.80;;;;;;;15.83;42.73;99942.66;5051174;28;20047;-73
2021/05/12 08:17:25;;;;;;;5.82;2.30;;;;;;;16.60;41.63;100047.31;5050836;28;20107;-73
2021/05/12 08:19:50;;;;;;;5.32;2.05;;;;;;;16.54;41.09;100034.25;5034324;28;20055;-74
2021/05/12 08:22:16;;;;;;;6.43;1.83;;;;;;;16.65;42.79;100040.41;5051033;28;20060;-75
2021/05/12 08:24:41;;;;;;;5.57;1.92;;;;;;;16.55;42.24;99980.38;5034389;28;20033;-78
2021/05/12 08:27:07;;;;;;;3.85;1.85;;;;;;;16.71;40.01;99979.63;5017739;28;20110;-77
2021/05/12 08:29:39;;;;;;;4.75;2.13;;;;;;;17.02;39.43;100017.97;5034363;28;20406;-78
2021/05/12 08:32:05;;;;;;;4.32;1.75;;;;;;;17.10;39.16;100016.28;5046374;28;20128;-79
2021/05/12 08:34:33;;;;;;;4.80;2.00;;;;;;;17.41;41.92;100001.56;5039954;28;20116;-76
2021/05/12 08:37:00;;;;;;;3.50;1.70;;;;;;;17.61;39.35;99995.50;5047704;28;20115;-73
2021/05/12 08:39:26;;;;;;;4.45;1.80;;;;;;;17.49;39.92;99990.25;5052902;28;20025;-73
2021/05/12 08:41:51;;;;;;;2.38;1.38;;;;;;;17.75;37.81;100006.78;5051479;28;20036;-74
2021/05/12 08:44:17;;;;;;;2.45;1.30;;;;;;;18.00;37.94;100001.59;5052714;28;20024;-74
2021/05/12 08:46:44;;;;;;;3.25;1.40;;;;;;;18.02;38.66;99989.41;5052849;28;20032;-77
2021/05/12 08:49:10;;;;;;;3.58;1.58;;;;;;;17.88;37.46;99984.19;5066133;28;20040;-77
2021/05/12 08:51:38;;;;;;;6.43;1.75;;;;;;;18.10;40.18;99981.56;5072563;28;20105;-74
2021/05/12 08:54:06;;;;;;;5.97;1.98;;;;;;;18.37;43.04;99991.06;5072731;28;20095;-76
2021/05/12 08:56:32;;;;;;;3.35;1.50;;;;;;;18.60;38.45;99979.66;5073230;28;20028;-74
2021/05/12 08:58:58;;;;;;;3.55;1.73;;;;;;;18.90;41.28;99983.94;5072825;28;20455;-75
2021/05/12 09:01:24;;;;;;;5.45;1.50;;;;;;;18.87;39.96;99965.59;5072619;28;20024;-76
2021/05/12 09:03:50;;;;;;;4.97;1.40;;;;;;;18.98;39.02;99976.03;5065549;28;20506;-76
2021/05/12 09:06:18;;;;;;;10.57;1.73;;;;;;;18.72;37.90;99963.06;5052700;28;20112;-77
2021/05/12 09:08:47;;;;;;;5.45;1.60;;;;;;;18.96;40.19;99945.53;5052644;28;20095;-76
2021/05/12 09:11:12;;;;;;;2.53;1.48;;;;;;;19.18;35.67;99957.59;5052650;28;20060;-78
2021/05/12 09:13:39;;;;;;;3.22;1.40;;;;;;;19.31;35.46;99944.44;5052328;28;20057;-75
2021/05/12 09:16:25;;;;;;;5.72;1.40;;;;;;;19.40;35.93;99923.41;5054320;28;20043;-77
2021/05/12 09:19:13;;;;;;;6.68;1.80;;;;;;;19.58;33.62;99934.59;5071303;28;20056;-78
2021/05/12 09:21:56;;;;;;;3.47;1.30;;;;;;;19.84;34.09;99945.75;5072066;28;20031;-76
2021/05/12 09:24:27;;;;;;;5.38;3.75;;;;;;;20.00;32.25;99935.13;5071863;28;20177;-75
2021/05/12 09:26:55;;;;;;;5.80;1.52;;;;;;;20.16;32.68;99926.22;5072086;28;20029;-74
2021/05/12 09:29:32;;;;;;;4.72;1.23;;;;;;;20.42;30.31;99937.28;5072133;28;20505;-75
2021/05/12 09:32:10;;;;;;;3.28;1.50;;;;;;;20.50;27.36;99933.69;5072051;28;20029;-77
2021/05/12 09:34:51;;;;;;;3.70;1.23;;;;;;;20.68;28.84;99929.94;5065287;28;20024;-76
2021/05/12 09:37:26;;;;;;;1.58;1.30;;;;;;;20.76;28.62;99923.75;5070211;28;20049;-82
2021/05/12 09:39:52;;;;;;;2.55;1.15;;;;;;;20.96;28.75;99924.34;5071543;28;20082;-77
2021/05/12 09:42:20;;;;;;;4.97;1.75;;;;;;;21.02;28.21;99923.38;5071387;28;20059;-76
2021/05/12 09:44:46;;;;;;;6.95;1.60;;;;;;;21.11;28.38;99918.00;5071307;28;20020;-78
2021/05/12 09:47:28;;;;;;;7.07;1.50;;;;;;;20.88;28.13;99875.50;5070833;28;20034;-77
2021/05/12 09:49:55;;;;;;;4.15;1.50;;;;;;;21.23;27.71;99916.06;5071359;28;20021;-77
2021/05/12 09:52:29;;;;;;;3.90;1.45;;;;;;;21.16;28.39;99915.31;5071458;28;20036;-78
2021/05/12 09:55:04;;;;;;;2.42;1.15;;;;;;;21.02;28.28;99878.75;5067152;28;20426;-75
2021/05/12 09:57:29;;;;;;;2.78;1.42;;;;;;;21.39;27.60;99917.56;5070776;28;20043;-72
2021/05/12 09:59:55;;;;;;;42.42;3.00;;;;;;;21.43;27.42;99915.75;5070612;28;20036;-74
2021/05/12 10:02:21;;;;;;;3.55;1.58;;;;;;;21.57;26.84;99903.28;5071052;28;20511;-75
2021/05/12 10:04:48;;;;;;;11.15;2.03;;;;;;;21.72;26.13;99910.03;5071660;28;20486;-76
2021/05/12 10:07:16;;;;;;;4.72;1.30;;;;;;;20.95;24.37;99788.78;5069662;28;20103;-75
2021/05/12 10:09:43;;;;;;;2.20;1.20;;;;;;;21.81;25.14;99903.75;5065710;28;20024;-76
2021/05/12 10:12:16;;;;;;;3.00;1.33;;;;;;;21.90;25.22;99900.94;5073387;28;20516;-76
2021/05/12 10:14:45;;;;;;;3.45;1.40;;;;;;;22.09;24.81;99897.94;5068653;28;20109;-77
2021/05/12 10:17:14;;;;;;;4.10;1.38;;;;;;;22.39;23.95;99879.84;5068996;28;20032;-76
2021/05/12 10:19:40;;;;;;;4.22;1.33;;;;;;;22.20;23.52;99864.41;5041590;28;20036;-76
2021/05/12 10:22:06;;;;;;;3.45;1.20;;;;;;;22.51;23.15;99868.22;5044692;28;20034;-76
2021/05/12 10:24:36;;;;;;;2.45;1.10;;;;;;;22.76;22.41;99869.34;5047903;28;20036;-74
2021/05/12 10:27:13;;;;;;;4.57;1.95;;;;;;;22.96;22.75;99864.56;5047275;28;20021;-75
2021/05/12 10:29:42;;;;;;;1.52;1.10;;;;;;;23.06;22.28;99860.78;5046949;28;20446;-72
2021/05/12 10:32:43;;;;;;;1.73;1.00;;;;;;;23.22;23.19;99848.16;5047298;28;20519;-72
2021/05/12 10:35:09;;;;;;;3.65;1.20;;;;;;;23.00;24.25;99846.00;4961170;28;20039;-73
2021/05/12 10:37:47;;;;;;;12.93;1.90;;;;;;;23.19;22.42;99843.81;4970139;28;20031;-74
2021/05/12 10:40:24;;;;;;;5.72;1.40;;;;;;;22.48;22.39;99836.69;4970080;28;20417;-74
2021/05/12 10:43:10;;;;;;;4.50;1.35;;;;;;;23.04;20.65;99845.03;4964013;28;20548;-75
2021/05/12 10:45:39;;;;;;;3.53;1.30;;;;;;;23.24;21.27;99836.66;4961706;28;20032;-74
2021/05/12 10:48:06;;;;;;;4.90;1.23;;;;;;;23.12;21.12;99833.47;4959915;28;20106;-73
2021/05/12 10:50:50;;;;;;;1.50;0.95;;;;;;;23.16;20.69;99827.22;4981905;28;20361;-72
2021/05/12 10:53:20;;;;;;;3.22;1.13;;;;;;;23.45;21.17;99822.97;5000633;28;20038;-75
2021/05/12 10:55:57;;;;;;;1.35;1.00;;;;;;;23.54;21.00;99825.34;5006263;28;20148;-72
2021/05/12 10:58:31;;;;;;;2.55;1.00;;;;;;;23.53;19.91;99827.13;5008410;28;20184;-72
2021/05/12 11:00:59;;;;;;;2.72;1.05;;;;;;;23.65;20.61;99822.44;4987475;28;20069;-73
2021/05/12 11:03:45;;;;;;;9.73;1.33;;;;;;;23.86;20.34;99813.06;4993227;28;20052;-73
2021/05/12 11:06:11;;;;;;;1.73;1.10;;;;;;;23.88;20.03;99805.97;5008459;28;20042;-76
2021/05/12 11:09:02;;;;;;;2.45;1.10;;;;;;;24.32;19.79;99808.22;5011475;28;20065;-71
2021/05/12 11:11:28;;;;;;;1.17;1.00;;;;;;;23.85;20.27;99799.03;5042191;28;20742;-71
2021/05/12 11:14:18;;;;;;;1.75;1.00;;;;;;;24.25;21.56;99812.84;5074028;28;20150;-75
2021/05/12 11:17:02;;;;;;;2.08;1.00;;;;;;;24.43;21.25;99807.91;5070209;28;20441;-70
2021/05/12 11:19:44;;;;;;;1.77;1.00;;;;;;;24.42;21.41;99796.47;5072468;28;20028;-71
2021/05/12 11:22:46;;;;;;;18.15;2.03;;;;;;;24.70;20.50;99800.94;5073997;28;20032;-74
2021/05/12 11:32:37;;;;;;;3.13;1.10;;;;;;;24.45;20.24;99798.16;5073646;28;20032;-74
2021/05/12 11:35:05;;;;;;;3.33;1.20;;;;;;;24.59;20.57;99793.31;5073980;28;20111;-72
2021/05/12 11:37:34;;;;;;;4.43;1.70;;;;;;;24.83;22.16;99781.13;5073687;28;20490;-71